Time;durP1;ratioP1;P1;durP2;ratioP2;P2;SDS_P1;SDS_P2;PMS_P1;PMS_P2;Temp;Humidity;BMP_temperature;BMP_pressure;BME280_temperature;BME280_humidity;BME280_pressure;Samples;Min_cycle;Max_cycle;Signal;HPM_P1;HPM_P2
2022/12/24 00:02:22;;;;;;;12.80;2.80;;;13.90;99.90;;;;;;5029003;28;20811;-76
2022/12/24 00:04:48;;;;;;;18.60;3.53;;;13.90;99.90;;;;;;4995631;28;20729;-77
2022/12/24 00:07:14;;;;;;;14.77;3.00;;;13.80;99.90;;;;;;5011214;28;21165;-77
2022/12/24 00:09:40;;;;;;;15.60;2.87;;;13.80;99.90;;;;;;5011695;28;20181;-76
2022/12/24 00:12:06;;;;;;;16.00;4.00;;;13.80;99.90;;;;;;5011457;28;20592;-77
2022/12/24 00:14:31;;;;;;;15.50;3.13;;;13.80;99.90;;;;;;5027979;28;20193;-76
2022/12/24 00:16:57;;;;;;;13.40;3.90;;;13.80;99.90;;;;;;5029807;28;20589;-77
2022/12/24 00:19:23;;;;;;;9.73;2.63;;;13.70;99.90;;;;;;5029501;28;20170;-76
2022/12/24 00:21:49;;;;;;;12.47;3.30;;;13.70;99.90;;;;;;5011019;28;20539;-77
2022/12/24 00:24:14;;;;;;;15.87;2.80;;;13.60;99.90;;;;;;5029057;28;20205;-76
2022/12/24 00:26:40;;;;;;;13.17;2.67;;;13.60;99.90;;;;;;5028490;28;20185;-76
2022/12/24 00:29:06;;;;;;;11.33;2.73;;;13.60;99.90;;;;;;5011893;28;20272;-76
2022/12/24 00:31:31;;;;;;;12.03;2.90;;;13.50;99.90;;;;;;5029049;28;20260;-75
2022/12/24 00:33:57;;;;;;;18.10;4.43;;;13.50;99.90;;;;;;5011214;28;20589;-76
2022/12/24 00:36:23;;;;;;;12.70;3.70;;;13.50;99.90;;;;;;5041425;28;20725;-76
2022/12/24 00:38:49;;;;;;;13.10;4.17;;;13.40;99.90;;;;;;5011040;28;20185;-77
2022/12/24 00:41:23;;;;;;;11.47;3.50;;;13.50;99.90;;;;;;5028057;28;20174;-76
2022/12/24 00:44:01;;;;;;;10.03;3.60;;;13.50;99.90;;;;;;5014222;28;21218;-76
2022/12/24 00:46:29;;;;;;;11.63;3.80;;;13.50;99.90;;;;;;5014757;28;21254;-76
2022/12/24 00:48:54;;;;;;;18.07;5.23;;;13.50;99.90;;;;;;5031690;28;21178;-76
2022/12/24 00:51:21;;;;;;;16.77;3.97;;;13.50;99.90;;;;;;5014495;28;20576;-76
2022/12/24 00:53:48;;;;;;;10.85;3.70;;;13.50;99.90;;;;;;5030759;28;20580;-76
2022/12/24 00:56:14;;;;;;;12.33;3.40;;;13.50;99.90;;;;;;5013778;28;20192;-76
2022/12/24 00:58:39;;;;;;;10.23;2.77;;;13.60;99.90;;;;;;5014014;28;20594;-77
2022/12/24 01:01:05;;;;;;;13.00;3.07;;;13.60;99.90;;;;;;5031734;28;20216;-76
2022/12/24 01:03:34;;;;;;;15.40;3.03;;;13.60;99.90;;;;;;5031489;28;20228;-76
2022/12/24 01:06:05;;;;;;;11.97;2.10;;;13.60;99.90;;;;;;5030071;28;20174;-77
2022/12/24 01:08:31;;;;;;;14.97;2.63;;;13.70;99.90;;;;;;5031707;28;20577;-77
2022/12/24 01:10:57;;;;;;;8.80;2.00;;;13.70;99.90;;;;;;5014015;28;20582;-77
2022/12/24 01:13:24;;;;;;;17.20;4.03;;;13.70;99.90;;;;;;5014012;28;20576;-77
2022/12/24 01:15:49;;;;;;;20.63;5.47;;;13.70;99.90;;;;;;5030872;28;20610;-77
2022/12/24 01:18:15;;;;;;;23.73;6.10;;;13.70;99.90;;;;;;5031584;28;20604;-76
2022/12/24 01:20:41;;;;;;;15.63;5.23;;;13.80;99.90;;;;;;5031495;28;20202;-77
2022/12/24 01:23:07;;;;;;;14.67;4.10;;;13.80;99.90;;;;;;5030274;28;20541;-76
2022/12/24 01:25:33;;;;;;;12.93;4.07;;;13.80;99.90;;;;;;5043485;28;20623;-76
2022/12/24 01:27:58;;;;;;;15.63;3.30;;;13.80;99.90;;;;;;5033418;28;20287;-76
2022/12/24 01:30:24;;;;;;;10.40;2.70;;;13.80;99.90;;;;;;5033141;28;20510;-76
2022/12/24 01:32:50;;;;;;;17.00;6.83;;;13.80;99.90;;;;;;5033104;28;20536;-76
2022/12/24 01:35:16;;;;;;;15.00;7.70;;;13.90;99.90;;;;;;5032452;28;20596;-76
2022/12/24 01:37:42;;;;;;;18.60;6.33;;;13.90;99.90;;;;;;5033559;28;20199;-76
2022/12/24 01:45:51;;;;;;;14.50;3.30;;;13.90;99.90;;;;;;5032299;28;20631;-77
2022/12/24 01:48:36;;;;;;;12.77;3.00;;;13.90;99.90;;;;;;5033295;28;20686;-77
2022/12/24 01:51:04;;;;;;;11.20;3.23;;;13.80;99.90;;;;;;5050835;28;20566;-76
2022/12/24 01:53:32;;;;;;;14.20;4.30;;;13.80;99.90;;;;;;5051006;28;20973;-76
2022/12/24 01:55:58;;;;;;;13.97;4.30;;;13.70;99.90;;;;;;5052508;28;20575;-76
2022/12/24 01:58:25;;;;;;;16.93;3.80;;;13.70;99.90;;;;;;5051873;28;20587;-77
2022/12/24 02:00:51;;;;;;;19.53;3.50;;;13.60;99.90;;;;;;5040604;28;20670;-77
2022/12/24 02:03:17;;;;;;;15.17;2.07;;;13.60;99.90;;;;;;5027477;28;20624;-77
2022/12/24 02:05:50;;;;;;;10.17;2.77;;;13.50;99.90;;;;;;5046486;28;20226;-77
2022/12/24 02:08:17;;;;;;;12.10;3.10;;;13.50;99.90;;;;;;5018934;28;21139;-76
2022/12/24 02:10:44;;;;;;;8.70;2.90;;;13.50;99.90;;;;;;5034170;28;20580;-76
2022/12/24 02:13:12;;;;;;;17.08;3.58;;;13.40;99.90;;;;;;5049724;28;20579;-76
2022/12/24 02:16:22;;;;;;;13.43;2.80;;;13.40;99.90;;;;;;5033135;28;20178;-76
2022/12/24 02:18:51;;;;;;;13.30;2.67;;;13.30;99.90;;;;;;5012395;28;20688;-76
2022/12/24 02:21:19;;;;;;;10.90;2.40;;;13.30;99.90;;;;;;5033160;28;20602;-76
2022/12/24 02:24:16;;;;;;;14.05;2.78;;;13.30;99.90;;;;;;5032853;28;20658;-76
2022/12/24 02:27:01;;;;;;;13.95;4.30;;;13.20;99.90;;;;;;5048603;28;20189;-76
2022/12/24 02:29:42;;;;;;;9.40;2.40;;;13.20;99.90;;;;;;5032139;28;20215;-76
2022/12/24 02:32:33;;;;;;;13.37;2.70;;;13.10;99.90;;;;;;5032076;28;20583;-76
2022/12/24 02:35:18;;;;;;;27.73;4.90;;;13.10;99.90;;;;;;5023127;28;20610;-76
2022/12/24 02:37:53;;;;;;;12.68;2.10;;;13.10;99.90;;;;;;5032146;28;20661;-76
2022/12/24 02:40:30;;;;;;;13.83;2.90;;;13.10;99.90;;;;;;5032780;28;20172;-76
2022/12/24 02:43:03;;;;;;;11.30;2.30;;;13.10;99.90;;;;;;5031708;28;20590;-76
2022/12/24 02:45:32;;;;;;;9.60;2.30;;;13.10;99.90;;;;;;5047827;28;20631;-76
2022/12/24 02:47:58;;;;;;;12.77;2.25;;;13.10;99.90;;;;;;5049914;28;20614;-76
2022/12/24 02:50:25;;;;;;;8.10;1.75;;;13.10;99.90;;;;;;5031699;28;20268;-77
2022/12/24 02:52:51;;;;;;;14.33;2.37;;;13.10;99.90;;;;;;5048294;28;20181;-77
2022/12/24 02:55:25;;;;;;;13.93;3.73;;;13.10;99.90;;;;;;5048918;28;21245;-76
2022/12/24 02:58:16;;;;;;;13.07;2.87;;;13.20;99.90;;;;;;5049343;28;20603;-76
2022/12/24 03:01:17;;;;;;;14.50;2.08;;;13.30;99.90;;;;;;5026699;28;20649;-76
2022/12/24 03:04:03;;;;;;;10.70;2.60;;;13.30;99.90;;;;;;5049215;28;20212;-76
2022/12/24 03:06:41;;;;;;;12.50;2.57;;;13.30;99.90;;;;;;5048517;28;20611;-76
2022/12/24 03:09:29;;;;;;;12.60;2.33;;;13.40;99.90;;;;;;5031669;28;20594;-76
2022/12/24 03:12:13;;;;;;;11.57;3.30;;;13.40;99.90;;;;;;5048632;28;20659;-77
2022/12/24 03:14:40;;;;;;;6.23;2.60;;;13.50;99.90;;;;;;5047729;28;20587;-76
2022/12/24 03:17:07;;;;;;;12.97;2.43;;;13.50;99.90;;;;;;5049341;28;20596;-77
2022/12/24 03:19:34;;;;;;;12.60;2.40;;;13.50;99.90;;;;;;5049560;28;20571;-76
2022/12/24 03:22:02;;;;;;;9.37;2.13;;;13.50;99.90;;;;;;5048836;28;20567;-77
2022/12/24 03:24:28;;;;;;;8.43;1.90;;;13.60;99.90;;;;;;5031030;28;20638;-77
2022/12/24 03:26:55;;;;;;;7.63;2.07;;;13.60;99.90;;;;;;5030912;28;20599;-76
2022/12/24 03:29:21;;;;;;;9.83;2.10;;;13.60;99.90;;;;;;5048082;28;20576;-77
2022/12/24 03:31:51;;;;;;;8.10;1.80;;;13.60;99.90;;;;;;5030844;28;20576;-76
2022/12/24 03:34:18;;;;;;;8.20;1.70;;;13.70;99.90;;;;;;5031059;28;20227;-75
2022/12/24 03:36:45;;;;;;;6.47;1.33;;;13.70;99.90;;;;;;5047365;28;21182;-75
2022/12/24 03:39:11;;;;;;;13.70;1.53;;;13.60;99.90;;;;;;5048879;28;20588;-76
2022/12/24 03:41:38;;;;;;;9.10;1.60;;;13.60;99.90;;;;;;5047526;28;20590;-76
2022/12/24 03:44:04;;;;;;;8.97;2.40;;;13.60;99.90;;;;;;5047539;28;20201;-76
2022/12/24 03:46:29;;;;;;;5.17;1.10;;;13.50;99.90;;;;;;5030810;28;20626;-76
2022/12/24 03:48:56;;;;;;;7.80;1.20;;;13.50;99.90;;;;;;5030980;28;21034;-76
2022/12/24 03:51:23;;;;;;;5.27;1.33;;;13.50;99.90;;;;;;5030844;28;20256;-76
2022/12/24 03:53:51;;;;;;;7.43;1.90;;;13.40;99.90;;;;;;5049151;28;20579;-75
2022/12/24 03:56:17;;;;;;;3.60;1.00;;;13.40;99.90;;;;;;5047020;28;21123;-75
2022/12/24 03:58:43;;;;;;;6.17;1.43;;;13.40;99.90;;;;;;5048678;28;20575;-75
2022/12/24 04:01:09;;;;;;;7.30;1.30;;;13.30;99.90;;;;;;5047344;28;20580;-76
2022/12/24 04:03:34;;;;;;;5.20;0.83;;;13.20;99.90;;;;;;5047582;28;20177;-75
2022/12/24 04:06:13;;;;;;;2.83;1.20;;;13.20;99.90;;;;;;5046846;28;20172;-75
2022/12/24 04:08:39;;;;;;;4.87;1.00;;;13.20;99.90;;;;;;5031018;28;20267;-75
2022/12/24 04:11:08;;;;;;;4.50;1.67;;;13.10;99.90;;;;;;5048267;28;20918;-75
2022/12/24 04:13:34;;;;;;;4.30;1.10;;;13.10;99.90;;;;;;5047837;28;21085;-76
2022/12/24 04:16:08;;;;;;;4.07;0.80;;;13.00;99.90;;;;;;5030458;28;20649;-76
2022/12/24 04:18:35;;;;;;;3.07;0.80;;;13.00;99.90;;;;;;5052734;28;20563;-77
2022/12/24 04:21:01;;;;;;;5.55;1.15;;;13.00;99.90;;;;;;5052324;28;20579;-77
2022/12/24 04:23:30;;;;;;;2.33;0.70;;;12.90;99.90;;;;;;5052354;28;20169;-77
2022/12/24 04:25:57;;;;;;;2.97;0.90;;;12.90;99.90;;;;;;5051903;28;20964;-76
2022/12/24 04:28:23;;;;;;;2.95;0.90;;;12.90;99.90;;;;;;5052626;28;20571;-77
2022/12/24 04:30:48;;;;;;;2.73;0.80;;;12.90;99.90;;;;;;5035942;28;20172;-77
2022/12/24 04:33:14;;;;;;;3.40;1.50;;;12.80;99.90;;;;;;5052339;28;20559;-76
2022/12/24 04:35:40;;;;;;;5.87;2.00;;;12.80;99.90;;;;;;5051749;28;20169;-76
2022/12/24 04:38:10;;;;;;;3.47;0.70;;;12.80;99.90;;;;;;5052102;28;20196;-75
2022/12/24 04:40:35;;;;;;;3.50;1.15;;;12.70;99.90;;;;;;5051254;28;20706;-76
2022/12/24 04:43:01;;;;;;;5.00;1.33;;;12.70;99.90;;;;;;5050218;28;20189;-76
2022/12/24 04:45:27;;;;;;;2.63;0.90;;;12.70;99.90;;;;;;5051515;28;20557;-75
2022/12/24 04:47:53;;;;;;;2.33;0.80;;;12.70;99.90;;;;;;5033848;28;20219;-76
2022/12/24 04:50:19;;;;;;;3.57;0.90;;;12.70;99.90;;;;;;5034270;28;20176;-76
2022/12/24 04:52:44;;;;;;;5.47;0.97;;;12.70;99.90;;;;;;5051139;28;20161;-76
2022/12/24 04:55:10;;;;;;;4.97;1.10;;;12.70;99.90;;;;;;5017143;28;20181;-77
2022/12/24 04:57:36;;;;;;;6.23;0.77;;;12.60;99.90;;;;;;5050364;28;20529;-77
2022/12/24 05:00:04;;;;;;;4.78;0.80;;;12.60;99.90;;;;;;5034159;28;20683;-77
2022/12/24 05:02:30;;;;;;;4.90;0.80;;;12.60;99.90;;;;;;5051386;28;20180;-77
2022/12/24 05:04:55;;;;;;;2.50;0.80;;;12.60;99.90;;;;;;5051282;28;20660;-77
2022/12/24 05:07:21;;;;;;;4.27;0.87;;;12.50;99.90;;;;;;5050161;28;20492;-77
2022/12/24 05:09:47;;;;;;;2.93;0.87;;;12.60;99.90;;;;;;5036887;28;20193;-76
2022/12/24 05:12:13;;;;;;;2.07;0.80;;;12.50;99.90;;;;;;5026986;28;20542;-76
2022/12/24 05:14:39;;;;;;;2.97;0.80;;;12.50;99.90;;;;;;5050750;28;20575;-76
2022/12/24 05:17:05;;;;;;;3.05;1.00;;;12.50;99.90;;;;;;5050081;28;20684;-76
2022/12/24 05:19:31;;;;;;;3.77;1.00;;;12.50;99.90;;;;;;5050048;28;20211;-77
2022/12/24 05:27:27;;;;;;;4.07;0.90;;;12.40;99.90;;;;;;5051077;28;20679;-76
2022/12/24 05:29:53;;;;;;;4.07;1.25;;;12.30;99.90;;;;;;5022145;28;20685;-76
2022/12/24 05:32:18;;;;;;;2.00;0.70;;;12.30;99.90;;;;;;5029719;28;20304;-77
2022/12/24 05:34:44;;;;;;;2.30;0.80;;;12.30;99.90;;;;;;5030404;28;20692;-77
2022/12/24 05:37:10;;;;;;;5.47;1.03;;;12.30;99.90;;;;;;5029780;28;20201;-76
2022/12/24 05:39:35;;;;;;;2.43;0.90;;;12.30;99.90;;;;;;5029720;28;20861;-77
2022/12/24 05:42:01;;;;;;;6.43;0.90;;;12.30;99.90;;;;;;5013357;28;20182;-77
2022/12/24 05:44:27;;;;;;;5.97;1.10;;;12.30;99.90;;;;;;5013163;28;20729;-76
2022/12/24 05:46:52;;;;;;;3.30;1.00;;;12.30;99.90;;;;;;5028416;28;20226;-76
2022/12/24 05:49:18;;;;;;;6.30;1.50;;;12.30;99.90;;;;;;5049975;28;20181;-77
2022/12/24 05:51:44;;;;;;;5.47;1.07;;;12.20;99.90;;;;;;5032310;28;20252;-77
2022/12/24 05:54:09;;;;;;;6.63;1.20;;;12.20;99.90;;;;;;5032864;28;20226;-77
2022/12/24 05:56:35;;;;;;;12.13;1.50;;;12.20;99.90;;;;;;5048892;28;20193;-78
2022/12/24 05:59:01;;;;;;;6.73;1.17;;;12.10;99.90;;;;;;5049910;28;20203;-77
2022/12/24 06:01:27;;;;;;;6.20;1.27;;;12.10;99.90;;;;;;5049118;28;20172;-77
2022/12/24 06:03:53;;;;;;;4.30;1.40;;;12.10;99.90;;;;;;5032837;28;20205;-77
2022/12/24 06:06:21;;;;;;;4.33;1.10;;;12.10;99.90;;;;;;5044719;28;20193;-77
2022/12/24 06:08:49;;;;;;;8.23;1.80;;;12.10;99.90;;;;;;5029524;28;21006;-77
2022/12/24 06:11:17;;;;;;;5.22;1.58;;;12.10;99.90;;;;;;5030008;28;20262;-77
2022/12/24 06:13:43;;;;;;;8.75;1.80;;;12.10;99.90;;;;;;5029472;28;20248;-77
2022/12/24 06:16:12;;;;;;;6.87;2.00;;;12.10;99.90;;;;;;5030017;28;20618;-77
2022/12/24 06:18:39;;;;;;;6.38;1.40;;;12.10;99.90;;;;;;5030250;28;20580;-77
2022/12/24 06:21:05;;;;;;;10.18;2.38;;;12.10;99.90;;;;;;5012651;28;20684;-77
2022/12/24 06:23:33;;;;;;;6.88;1.55;;;12.10;99.90;;;;;;5015225;28;20260;-77
2022/12/24 06:26:00;;;;;;;7.45;2.00;;;12.10;99.90;;;;;;5028832;28;20645;-77
2022/12/24 06:28:30;;;;;;;6.38;1.80;;;12.10;99.90;;;;;;5028806;28;20170;-77
2022/12/24 06:30:56;;;;;;;6.57;1.60;;;12.10;99.90;;;;;;5030275;28;20162;-77
2022/12/24 06:33:22;;;;;;;4.97;1.67;;;12.10;99.90;;;;;;5029426;28;20645;-77
2022/12/24 06:35:47;;;;;;;9.97;1.70;;;12.10;99.90;;;;;;5029913;28;20170;-76
2022/12/24 06:38:14;;;;;;;13.53;2.30;;;12.10;99.90;;;;;;5029314;28;20703;-76
2022/12/24 06:40:43;;;;;;;6.57;1.80;;;12.10;99.90;;;;;;5012125;28;20178;-77
2022/12/24 06:43:09;;;;;;;7.88;2.30;;;12.10;99.90;;;;;;5011884;28;20264;-76
2022/12/24 06:45:35;;;;;;;9.50;2.05;;;12.10;99.90;;;;;;5012013;28;20182;-76
2022/12/24 06:48:00;;;;;;;4.27;1.73;;;12.10;99.90;;;;;;5028281;28;20217;-77
2022/12/24 06:50:27;;;;;;;9.50;2.13;;;12.10;99.90;;;;;;5028953;28;20173;-76
2022/12/24 06:52:53;;;;;;;8.48;2.00;;;12.10;99.90;;;;;;5029726;28;21132;-76
2022/12/24 06:55:18;;;;;;;7.30;2.20;;;12.10;99.90;;;;;;5029196;28;20174;-77
2022/12/24 06:57:44;;;;;;;8.90;2.20;;;12.10;99.90;;;;;;5012157;28;20282;-77
2022/12/24 07:00:11;;;;;;;9.53;2.60;;;12.00;99.90;;;;;;5031126;28;20241;-77
2022/12/24 07:02:41;;;;;;;9.38;2.25;;;12.00;99.90;;;;;;5037546;28;20568;-77
2022/12/24 07:05:09;;;;;;;11.35;3.22;;;11.90;99.90;;;;;;5046537;28;20290;-77
2022/12/24 07:07:36;;;;;;;8.00;1.75;;;11.90;99.90;;;;;;5033984;28;20723;-77
2022/12/24 07:10:03;;;;;;;5.55;1.60;;;11.90;99.90;;;;;;5042443;28;20173;-76
2022/12/24 07:12:31;;;;;;;14.45;2.67;;;11.90;99.90;;;;;;5049194;28;20169;-76
2022/12/24 07:14:57;;;;;;;7.90;3.08;;;11.90;99.90;;;;;;5027607;28;20170;-76
2022/12/24 07:17:22;;;;;;;11.90;2.20;;;12.00;99.90;;;;;;5040953;28;20547;-76
2022/12/24 07:19:51;;;;;;;12.00;2.50;;;12.00;99.90;;;;;;5048060;28;20568;-76
2022/12/24 07:22:17;;;;;;;10.83;2.90;;;12.00;99.90;;;;;;5049229;28;20174;-77
2022/12/24 07:24:43;;;;;;;14.27;2.70;;;12.00;99.90;;;;;;5049112;28;20203;-77
2022/12/24 07:27:08;;;;;;;11.93;4.30;;;12.10;99.90;;;;;;5031518;28;20207;-78
2022/12/24 07:29:34;;;;;;;8.70;2.30;;;12.20;99.90;;;;;;5049750;28;20179;-77
2022/12/24 07:32:00;;;;;;;14.70;3.03;;;12.20;99.90;;;;;;5047394;28;20181;-77
2022/12/24 07:34:27;;;;;;;6.95;2.10;;;12.30;99.90;;;;;;5031688;28;20212;-77
2022/12/24 07:36:52;;;;;;;13.43;2.07;;;12.30;99.90;;;;;;5028866;28;20219;-78
2022/12/24 07:39:18;;;;;;;10.97;2.03;;;12.40;99.90;;;;;;5027133;28;20259;-76
2022/12/24 07:41:44;;;;;;;13.47;2.27;;;12.40;99.90;;;;;;5047634;28;20178;-77
2022/12/24 07:44:13;;;;;;;10.07;2.35;;;12.40;99.90;;;;;;5029625;28;20209;-77
2022/12/24 07:46:39;;;;;;;9.32;2.42;;;12.50;99.90;;;;;;5037804;28;20207;-76
2022/12/24 07:49:05;;;;;;;9.23;2.80;;;12.50;99.90;;;;;;5038769;28;20556;-76
2022/12/24 07:51:30;;;;;;;15.70;2.47;;;12.60;99.90;;;;;;5061545;28;20173;-82
2022/12/24 07:53:56;;;;;;;10.40;3.53;;;12.60;99.90;;;;;;5060997;28;20660;-82
2022/12/24 07:56:22;;;;;;;8.27;2.27;;;12.60;99.90;;;;;;5042103;28;20201;-81
2022/12/24 07:58:49;;;;;;;9.10;2.27;;;12.60;99.90;;;;;;5041882;28;20173;-82
2022/12/24 08:01:15;;;;;;;13.70;3.20;;;12.60;99.90;;;;;;5053899;28;20207;-82
2022/12/24 08:03:41;;;;;;;11.85;3.53;;;12.70;99.90;;;;;;5055618;28;20714;-83
2022/12/24 08:06:07;;;;;;;14.83;2.77;;;12.70;99.90;;;;;;5033471;28;20162;-82
2022/12/24 08:08:33;;;;;;;13.63;2.83;;;12.70;99.90;;;;;;5035496;28;20220;-82
2022/12/24 08:11:04;;;;;;;15.87;3.17;;;12.70;99.90;;;;;;5036395;28;20565;-82
2022/12/24 08:13:31;;;;;;;13.27;2.17;;;12.70;99.90;;;;;;5019206;28;20688;-83
2022/12/24 08:15:57;;;;;;;9.90;2.10;;;12.80;99.90;;;;;;5039190;28;20596;-83
2022/12/24 08:18:23;;;;;;;14.13;2.60;;;12.80;99.90;;;;;;5019331;28;20595;-84
2022/12/24 08:20:49;;;;;;;13.40;2.87;;;12.90;99.90;;;;;;5017015;28;20255;-84
2022/12/24 08:23:15;;;;;;;10.33;2.47;;;12.90;99.90;;;;;;5032577;28;20640;-84
2022/12/24 08:25:45;;;;;;;10.37;2.00;;;13.00;99.90;;;;;;5015300;28;20201;-84
2022/12/24 08:28:13;;;;;;;14.07;3.33;;;13.00;99.90;;;;;;5034220;28;20655;-85
2022/12/24 08:30:38;;;;;;;11.97;3.57;;;13.10;99.90;;;;;;5015311;28;20173;-84
2022/12/24 08:33:04;;;;;;;11.60;2.13;;;13.10;99.90;;;;;;5031746;28;20595;-85
2022/12/24 08:35:30;;;;;;;14.67;2.63;;;13.10;99.90;;;;;;5015025;28;20240;-82
2022/12/24 08:37:56;;;;;;;11.77;2.83;;;13.20;99.90;;;;;;5032881;28;20201;-83
2022/12/24 08:40:24;;;;;;;13.53;2.97;;;13.30;99.90;;;;;;5015785;28;21175;-82
2022/12/24 08:42:50;;;;;;;12.23;3.40;;;13.30;99.90;;;;;;5016454;28;20181;-82
2022/12/24 08:45:16;;;;;;;13.93;2.83;;;13.30;99.90;;;;;;5014388;28;20634;-81
2022/12/24 08:47:41;;;;;;;14.37;3.47;;;13.40;99.90;;;;;;5012591;28;20189;-81
2022/12/24 08:50:10;;;;;;;10.43;2.20;;;13.40;99.90;;;;;;5028135;28;20654;-80
2022/12/24 08:52:36;;;;;;;10.93;2.70;;;13.50;99.90;;;;;;5034622;28;20184;-81
2022/12/24 08:55:02;;;;;;;11.60;3.50;;;13.50;99.90;;;;;;5034681;28;21011;-80
2022/12/24 08:57:28;;;;;;;12.73;3.23;;;13.60;99.90;;;;;;5038656;28;20700;-81
2022/12/24 08:59:54;;;;;;;13.50;2.47;;;13.60;99.90;;;;;;5051082;28;21396;-81
2022/12/24 09:02:19;;;;;;;14.20;3.57;;;13.60;99.90;;;;;;5034068;28;20173;-81
2022/12/24 09:04:45;;;;;;;14.50;3.10;;;13.60;99.90;;;;;;5040341;28;20690;-81
2022/12/24 09:07:11;;;;;;;9.93;2.40;;;13.60;99.90;;;;;;5047509;28;20197;-81
2022/12/24 09:09:37;;;;;;;12.83;2.90;;;13.70;99.90;;;;;;5042366;28;20576;-81
2022/12/24 09:12:05;;;;;;;15.57;3.50;;;13.70;99.90;;;;;;5044289;28;20246;-80
2022/12/24 09:14:30;;;;;;;10.10;2.20;;;13.60;99.90;;;;;;5037887;28;20600;-80
2022/12/24 09:16:56;;;;;;;10.43;2.63;;;13.70;99.90;;;;;;5030171;28;21178;-81
2022/12/24 09:19:22;;;;;;;9.70;2.20;;;13.60;99.90;;;;;;5011525;28;20650;-80
2022/12/24 09:21:49;;;;;;;17.20;3.63;;;13.60;99.90;;;;;;5007482;28;20178;-78
2022/12/24 09:24:16;;;;;;;11.20;3.43;;;13.60;99.90;;;;;;5034987;28;20628;-78
2022/12/24 09:26:41;;;;;;;13.40;3.17;;;13.60;99.90;;;;;;5028222;28;20604;-78
2022/12/24 09:29:09;;;;;;;16.30;3.13;;;13.60;99.90;;;;;;5044909;28;20940;-78
2022/12/24 09:31:35;;;;;;;12.03;2.57;;;13.50;99.90;;;;;;5055175;28;20181;-78
2022/12/24 09:34:01;;;;;;;13.90;4.30;;;13.60;99.90;;;;;;5051622;28;20613;-77
2022/12/24 09:36:27;;;;;;;10.47;3.10;;;13.50;99.90;;;;;;5032868;28;20238;-78
2022/12/24 09:38:52;;;;;;;16.07;3.77;;;13.50;99.90;;;;;;5038791;28;20174;-79
2022/12/24 09:41:21;;;;;;;10.43;3.77;;;13.50;99.90;;;;;;5019887;28;20649;-79
2022/12/24 09:44:11;;;;;;;12.43;3.13;;;13.60;99.90;;;;;;5028719;28;20668;-78
2022/12/24 09:46:42;;;;;;;14.63;3.73;;;13.60;99.90;;;;;;5018398;28;21017;-78
2022/12/24 09:49:15;;;;;;;12.80;2.63;;;13.60;99.90;;;;;;5030105;28;20650;-78
2022/12/24 09:51:48;;;;;;;13.33;2.97;;;13.60;99.90;;;;;;5044914;28;20588;-78
2022/12/24 09:54:25;;;;;;;12.67;2.87;;;13.60;99.90;;;;;;5028833;28;20611;-78
2022/12/24 09:56:53;;;;;;;13.73;3.37;;;13.60;99.90;;;;;;5044761;28;20619;-78
2022/12/24 09:59:38;;;;;;;13.17;4.50;;;13.70;99.90;;;;;;5045678;28;20970;-78
2022/12/24 10:02:12;;;;;;;14.73;3.70;;;13.70;99.90;;;;;;5022675;28;20592;-78
2022/12/24 10:04:38;;;;;;;9.97;2.90;;;13.70;99.90;;;;;;5048902;28;21444;-78
2022/12/24 10:07:34;;;;;;;13.37;3.30;;;13.80;99.90;;;;;;5020244;28;20628;-78
2022/12/24 10:10:30;;;;;;;11.73;3.27;;;13.90;99.90;;;;;;5024975;28;20189;-78
2022/12/24 10:13:23;;;;;;;10.57;3.10;;;13.90;99.90;;;;;;5033534;28;20579;-77
2022/12/24 10:16:07;;;;;;;14.00;3.80;;;13.90;99.90;;;;;;5028405;28;20596;-78
2022/12/24 10:18:33;;;;;;;10.07;3.17;;;13.90;99.90;;;;;;5046001;28;20592;-78
2022/12/24 10:21:13;;;;;;;12.20;3.00;;;13.90;99.90;;;;;;5030930;28;20572;-80
2022/12/24 10:23:47;;;;;;;14.53;2.97;;;13.90;99.90;;;;;;5030603;28;20584;-79
2022/12/24 10:26:31;;;;;;;12.80;3.43;;;13.90;99.90;;;;;;5029934;28;20576;-80
2022/12/24 10:29:16;;;;;;;11.53;3.53;;;13.90;99.90;;;;;;5034549;28;20597;-81
2022/12/24 10:32:01;;;;;;;16.93;7.83;;;14.00;99.90;;;;;;5037766;28;20568;-80
2022/12/24 10:34:42;;;;;;;31.63;11.40;;;14.00;99.90;;;;;;5030798;28;20627;-79
2022/12/24 10:37:38;;;;;;;25.80;10.27;;;14.10;99.90;;;;;;5010902;28;20663;-80
2022/12/24 10:40:04;;;;;;;20.03;8.80;;;14.10;99.90;;;;;;5005338;28;20608;-80
2022/12/24 10:42:47;;;;;;;20.03;6.07;;;14.20;99.90;;;;;;5037868;28;20619;-80
2022/12/24 10:45:17;;;;;;;18.97;4.40;;;14.20;99.90;;;;;;5048672;28;20644;-81
2022/12/24 10:47:46;;;;;;;15.57;3.73;;;14.30;99.90;;;;;;5012907;28;20619;-80
2022/12/24 10:50:37;;;;;;;12.47;3.10;;;14.30;99.90;;;;;;5042901;28;20934;-82
2022/12/24 10:53:18;;;;;;;14.10;4.70;;;14.40;99.90;;;;;;5032673;28;20577;-82
2022/12/24 10:55:47;;;;;;;16.40;5.43;;;14.50;99.90;;;;;;5036235;28;20592;-81
2022/12/24 10:58:17;;;;;;;14.53;5.00;;;14.50;99.90;;;;;;5052578;28;20660;-79
2022/12/24 11:00:50;;;;;;;14.67;5.17;;;14.50;99.90;;;;;;5046107;28;21043;-79
2022/12/24 11:03:23;;;;;;;10.20;3.97;;;14.60;99.90;;;;;;5056954;28;20644;-80
2022/12/24 11:06:20;;;;;;;17.90;4.00;;;14.60;99.90;;;;;;5051047;28;20661;-81
2022/12/24 11:08:46;;;;;;;15.67;3.80;;;14.60;99.90;;;;;;5025855;28;20587;-81
2022/12/24 11:11:16;;;;;;;17.33;4.33;;;14.60;99.90;;;;;;5033789;28;20572;-82
2022/12/24 11:13:44;;;;;;;13.43;3.00;;;14.60;99.90;;;;;;5051164;28;20675;-81
2022/12/24 11:16:28;;;;;;;16.07;2.87;;;14.60;99.90;;;;;;5049815;28;20576;-81
2022/12/24 11:19:01;;;;;;;14.03;3.37;;;14.60;99.90;;;;;;5051957;28;20559;-81
2022/12/24 11:21:29;;;;;;;14.90;4.00;;;14.70;99.90;;;;;;5043223;28;20614;-82
2022/12/24 11:23:58;;;;;;;16.90;4.30;;;14.70;99.90;;;;;;5048025;28;20616;-81
2022/12/24 11:26:27;;;;;;;14.30;2.80;;;14.80;99.90;;;;;;5029366;28;20615;-81
2022/12/24 11:29:20;;;;;;;11.17;2.90;;;14.80;99.90;;;;;;5037444;28;20942;-79
2022/12/24 11:31:47;;;;;;;14.03;5.70;;;14.80;99.90;;;;;;5021122;28;21162;-79
2022/12/24 11:34:30;;;;;;;20.20;7.33;;;14.90;99.90;;;;;;5038858;28;20611;-79
2022/12/24 11:37:20;;;;;;;17.40;6.43;;;15.00;99.90;;;;;;5030142;28;20725;-81
2022/12/24 11:39:50;;;;;;;17.97;5.17;;;15.00;99.90;;;;;;5030366;28;20582;-79
2022/12/24 11:42:38;;;;;;;14.47;4.23;;;15.00;99.90;;;;;;5048090;28;21127;-80
2022/12/24 11:45:16;;;;;;;12.60;4.37;;;15.00;99.90;;;;;;5048176;28;20631;-80
2022/12/24 11:47:42;;;;;;;24.30;9.47;;;15.00;99.90;;;;;;5047068;28;20734;-79
2022/12/24 11:50:31;;;;;;;24.87;11.27;;;15.10;99.90;;;;;;5032045;28;20658;-79
2022/12/24 11:53:03;;;;;;;27.73;17.07;;;15.10;99.90;;;;;;5031064;28;20185;-79
2022/12/24 11:55:49;;;;;;;17.90;8.73;;;15.10;99.90;;;;;;5048756;28;20583;-79
2022/12/24 11:58:19;;;;;;;19.30;6.60;;;15.00;99.90;;;;;;5036282;28;20650;-79
2022/12/24 12:00:46;;;;;;;13.90;4.53;;;15.00;99.90;;;;;;5044142;28;20581;-78
2022/12/24 12:03:37;;;;;;;12.97;4.10;;;15.10;99.90;;;;;;5035505;28;20616;-78
2022/12/24 12:06:08;;;;;;;12.90;5.57;;;15.10;99.90;;;;;;5027655;28;20638;-79
2022/12/24 12:08:35;;;;;;;11.13;3.87;;;15.10;99.90;;;;;;5030582;28;20575;-78
2022/12/24 12:11:08;;;;;;;11.57;3.43;;;15.10;99.90;;;;;;5048413;28;20571;-79
2022/12/24 12:13:36;;;;;;;14.40;3.07;;;15.10;99.90;;;;;;5032061;28;20603;-78
2022/12/24 12:16:15;;;;;;;10.97;2.50;;;15.10;99.90;;;;;;5045393;28;21006;-79
2022/12/24 12:18:50;;;;;;;15.73;3.50;;;15.10;99.90;;;;;;5017594;28;20584;-78
2022/12/24 12:21:19;;;;;;;13.20;3.10;;;15.10;99.90;;;;;;5041870;28;20587;-77
2022/12/24 12:23:50;;;;;;;10.43;3.33;;;15.20;99.90;;;;;;5029957;28;20589;-77
2022/12/24 12:26:30;;;;;;;10.13;2.90;;;15.20;99.90;;;;;;5028796;28;20608;-78
2022/12/24 12:29:30;;;;;;;12.93;3.70;;;15.20;99.90;;;;;;5028942;28;20575;-78
2022/12/24 12:32:04;;;;;;;11.50;3.20;;;15.20;99.90;;;;;;5029310;28;20556;-79
2022/12/24 12:34:41;;;;;;;10.00;3.83;;;15.30;99.90;;;;;;5043846;28;20653;-79
2022/12/24 12:37:19;;;;;;;12.20;4.40;;;15.30;99.90;;;;;;5031823;28;20614;-80
2022/12/24 12:39:45;;;;;;;18.87;8.37;;;15.40;99.90;;;;;;5033273;28;20650;-79
2022/12/24 12:42:29;;;;;;;14.33;5.97;;;15.40;99.90;;;;;;5033735;28;20598;-79
2022/12/24 12:45:40;;;;;;;21.40;5.63;;;15.50;99.90;;;;;;5015674;28;20620;-81
2022/12/24 12:48:31;;;;;;;14.23;4.47;;;15.50;99.90;;;;;;5031377;28;20717;-80
2022/12/24 12:51:08;;;;;;;17.20;4.30;;;15.60;99.90;;;;;;5031128;28;20568;-80
2022/12/24 12:53:48;;;;;;;7.80;3.10;;;15.60;99.90;;;;;;5031714;28;20572;-81
2022/12/24 12:56:29;;;;;;;10.90;3.30;;;15.70;99.90;;;;;;5031413;28;20572;-81
2022/12/24 12:59:03;;;;;;;13.60;4.60;;;15.70;99.90;;;;;;5033036;28;20564;-80
2022/12/24 13:02:08;;;;;;;16.13;6.43;;;15.80;99.90;;;;;;5047328;28;20583;-81
2022/12/24 13:04:52;;;;;;;13.63;4.77;;;15.80;99.90;;;;;;5025109;28;20658;-80
2022/12/24 13:07:46;;;;;;;18.13;4.63;;;15.80;99.90;;;;;;5032209;28;20591;-78
2022/12/24 13:10:40;;;;;;;15.93;4.23;;;15.90;99.90;;;;;;5043155;28;20933;-80